Time;durP1;ratioP1;P1;durP2;ratioP2;P2;SDS_P1;SDS_P2;PMS_P1;PMS_P2;Temp;Humidity;BMP_temperature;BMP_pressure;BME280_temperature;BME280_humidity;BME280_pressure;Samples;Min_cycle;Max_cycle;Signal;HPM_P1;HPM_P2
2021/11/06 00:00:29;;;;;;;5.05;2.30;;;8.30;99.90;;;;;;5113863;28;20484;-71
2021/11/06 00:02:55;;;;;;;4.43;1.55;;;8.40;99.90;;;;;;5113353;28;20050;-71
2021/11/06 00:05:21;;;;;;;6.25;2.00;;;8.40;99.90;;;;;;5113933;28;20043;-71
2021/11/06 00:07:47;;;;;;;4.95;1.42;;;8.30;99.90;;;;;;5114235;28;20035;-71
2021/11/06 00:10:13;;;;;;;5.07;1.50;;;8.30;99.90;;;;;;5112562;28;20042;-72
2021/11/06 00:12:40;;;;;;;4.75;1.30;;;8.30;99.90;;;;;;5113782;28;20043;-72
2021/11/06 00:15:07;;;;;;;4.07;1.10;;;8.30;99.90;;;;;;5112523;28;20130;-71
2021/11/06 00:17:35;;;;;;;7.15;1.70;;;8.40;99.90;;;;;;5114232;28;20043;-71
2021/11/06 00:20:01;;;;;;;5.20;1.48;;;8.40;99.90;;;;;;5112573;28;20040;-71
2021/11/06 00:22:27;;;;;;;5.78;1.95;;;8.50;99.90;;;;;;5114014;28;20035;-71
2021/11/06 00:24:52;;;;;;;5.10;2.20;;;8.50;99.90;;;;;;5114189;28;20039;-72
2021/11/06 00:27:18;;;;;;;7.03;1.67;;;8.60;99.90;;;;;;5114134;28;20070;-71
2021/11/06 00:29:44;;;;;;;8.40;2.60;;;8.60;99.90;;;;;;5112123;28;20035;-71
2021/11/06 00:32:10;;;;;;;5.88;1.80;;;8.60;99.90;;;;;;5113843;28;20054;-72
2021/11/06 00:34:36;;;;;;;5.22;1.40;;;8.70;99.90;;;;;;5112290;28;20385;-72
2021/11/06 00:37:02;;;;;;;8.05;1.88;;;8.60;99.90;;;;;;5112258;28;20047;-72
2021/11/06 00:39:28;;;;;;;4.53;1.85;;;8.60;99.90;;;;;;5113232;28;20492;-73
2021/11/06 00:41:54;;;;;;;4.65;1.63;;;8.60;99.90;;;;;;5095876;28;20040;-73
2021/11/06 00:44:23;;;;;;;6.55;1.73;;;8.60;99.90;;;;;;5114015;28;20043;-72
2021/11/06 00:46:51;;;;;;;4.22;1.50;;;8.60;99.90;;;;;;5112546;28;20048;-72
2021/11/06 00:49:17;;;;;;;6.05;1.60;;;8.60;99.90;;;;;;5113528;28;20161;-73
2021/11/06 00:51:43;;;;;;;7.15;2.00;;;8.60;99.90;;;;;;5094676;28;20079;-73
2021/11/06 00:54:11;;;;;;;6.35;2.25;;;8.60;99.90;;;;;;5113747;28;20078;-72
2021/11/06 00:56:37;;;;;;;9.32;2.00;;;8.50;99.90;;;;;;5112885;28;20039;-72
2021/11/06 00:59:02;;;;;;;6.05;1.73;;;8.50;99.90;;;;;;5113345;28;20372;-72
2021/11/06 01:01:31;;;;;;;11.57;2.22;;;8.50;99.90;;;;;;5112104;28;20043;-72
2021/11/06 01:03:58;;;;;;;4.07;1.80;;;8.50;99.90;;;;;;5113542;28;20044;-72
2021/11/06 01:06:24;;;;;;;5.05;2.03;;;8.60;99.90;;;;;;5112337;28;20040;-72
2021/11/06 01:08:50;;;;;;;3.35;1.92;;;8.50;99.90;;;;;;5113030;28;20036;-71
2021/11/06 01:11:16;;;;;;;7.68;2.05;;;8.50;99.90;;;;;;5113671;28;20066;-72
2021/11/06 01:13:42;;;;;;;5.60;2.17;;;8.60;99.90;;;;;;5112359;28;20040;-73
2021/11/06 01:16:09;;;;;;;4.32;2.55;;;8.60;99.90;;;;;;5116299;28;20096;-73
2021/11/06 01:18:37;;;;;;;5.90;2.22;;;8.60;99.90;;;;;;5116666;28;20052;-72
2021/11/06 01:21:03;;;;;;;7.72;3.40;;;8.60;99.90;;;;;;5117084;28;20043;-72
2021/11/06 01:23:29;;;;;;;6.65;2.10;;;8.60;99.90;;;;;;5117519;28;20031;-72
2021/11/06 01:25:54;;;;;;;4.25;2.08;;;8.60;99.90;;;;;;5116894;28;20044;-72
2021/11/06 01:28:23;;;;;;;3.90;2.00;;;8.60;99.90;;;;;;5117149;28;20040;-72
2021/11/06 01:30:49;;;;;;;4.45;2.17;;;8.60;99.90;;;;;;5116553;28;20106;-72
2021/11/06 01:33:15;;;;;;;10.10;3.38;;;8.70;99.90;;;;;;5115837;28;20122;-72
2021/11/06 01:35:40;;;;;;;6.40;2.40;;;8.70;99.90;;;;;;5117075;28;20114;-72
2021/11/06 01:38:06;;;;;;;6.57;2.85;;;8.70;99.90;;;;;;5115829;28;20046;-71
2021/11/06 01:40:32;;;;;;;5.25;2.88;;;8.70;99.90;;;;;;5116513;28;20448;-71
2021/11/06 01:42:58;;;;;;;7.65;2.53;;;8.70;99.90;;;;;;5116731;28;20409;-72
2021/11/06 01:45:24;;;;;;;8.35;2.67;;;8.80;99.90;;;;;;5098147;28;20057;-71
2021/11/06 01:47:51;;;;;;;5.45;2.47;;;8.80;99.90;;;;;;5115084;28;20050;-72
2021/11/06 01:50:18;;;;;;;3.13;2.17;;;8.80;99.90;;;;;;5115090;28;20097;-71
2021/11/06 01:52:44;;;;;;;5.57;2.70;;;8.70;99.90;;;;;;5116609;28;20055;-72
2021/11/06 01:55:10;;;;;;;6.55;2.75;;;8.80;99.90;;;;;;5116371;28;20085;-72
2021/11/06 01:57:36;;;;;;;8.63;3.40;;;8.80;99.90;;;;;;5116568;28;20044;-72
2021/11/06 02:00:12;;;;;;;10.25;3.33;;;8.80;99.90;;;;;;5114865;28;20088;-72
2021/11/06 02:02:41;;;;;;;5.47;2.80;;;8.80;99.90;;;;;;5115022;28;20044;-72
2021/11/06 02:05:07;;;;;;;6.65;3.00;;;8.80;99.90;;;;;;5114767;28;20092;-72
2021/11/06 02:07:33;;;;;;;13.30;4.50;;;8.80;99.90;;;;;;5116673;28;20110;-72
2021/11/06 02:10:00;;;;;;;9.10;3.25;;;8.80;99.90;;;;;;5114733;28;20040;-73
2021/11/06 02:12:26;;;;;;;7.28;4.25;;;8.80;99.90;;;;;;5116150;27;20132;-72
2021/11/06 02:14:52;;;;;;;6.55;3.58;;;8.80;99.90;;;;;;5115900;28;20067;-72
2021/11/06 02:17:18;;;;;;;8.05;3.85;;;8.90;99.90;;;;;;5114783;28;20040;-73
2021/11/06 02:19:44;;;;;;;10.25;3.45;;;8.90;99.90;;;;;;5115625;28;20035;-72
2021/11/06 02:22:10;;;;;;;7.35;3.53;;;8.90;99.90;;;;;;5098214;28;20044;-72
2021/11/06 02:24:35;;;;;;;10.30;3.65;;;8.90;99.90;;;;;;5115926;28;20040;-72
2021/11/06 02:27:01;;;;;;;14.70;4.97;;;8.90;99.90;;;;;;5115318;28;20092;-73
2021/11/06 02:29:26;;;;;;;10.48;4.55;;;8.90;99.90;;;;;;5115630;28;20046;-72
2021/11/06 02:31:52;;;;;;;6.07;3.80;;;8.90;99.90;;;;;;5115845;28;20123;-72
2021/11/06 02:34:18;;;;;;;11.70;3.75;;;8.90;99.90;;;;;;5115638;28;20040;-72
2021/11/06 02:36:44;;;;;;;8.05;4.30;;;8.90;99.90;;;;;;5115645;28;20032;-72
2021/11/06 02:39:10;;;;;;;11.57;4.45;;;8.90;99.90;;;;;;5115222;28;20040;-72
2021/11/06 02:41:36;;;;;;;7.97;4.10;;;8.90;99.90;;;;;;5115629;28;20464;-72
2021/11/06 02:44:13;;;;;;;6.07;4.82;;;8.90;99.90;;;;;;5115403;28;20051;-72
2021/11/06 02:46:40;;;;;;;8.93;4.80;;;8.90;99.90;;;;;;5114588;28;20035;-72
2021/11/06 02:49:07;;;;;;;10.30;5.03;;;8.90;99.90;;;;;;5115313;28;20065;-72
2021/11/06 02:51:33;;;;;;;9.15;4.45;;;8.90;99.90;;;;;;5115155;28;20081;-72
2021/11/06 02:53:59;;;;;;;11.13;4.78;;;8.90;99.90;;;;;;5115143;28;20052;-72
2021/11/06 02:56:26;;;;;;;9.82;4.60;;;9.00;99.90;;;;;;5113956;28;20040;-72
2021/11/06 02:58:52;;;;;;;8.88;4.80;;;9.00;99.90;;;;;;5113498;28;20067;-72
2021/11/06 03:01:17;;;;;;;11.68;4.82;;;9.00;99.90;;;;;;5096851;28;20046;-72
2021/11/06 03:03:43;;;;;;;9.02;4.80;;;9.10;99.90;;;;;;5114934;28;20043;-72
2021/11/06 03:06:09;;;;;;;11.68;5.40;;;9.10;99.90;;;;;;5115582;28;20043;-72
2021/11/06 03:08:34;;;;;;;11.70;4.38;;;9.10;99.90;;;;;;5113653;28;20127;-72
2021/11/06 03:11:00;;;;;;;14.80;5.40;;;9.10;99.90;;;;;;5113554;28;20043;-72
2021/11/06 03:13:26;;;;;;;9.60;4.70;;;9.10;99.90;;;;;;5115297;28;20039;-72
2021/11/06 03:15:51;;;;;;;10.25;5.40;;;9.10;99.90;;;;;;5114892;28;20040;-72
2021/11/06 03:18:17;;;;;;;11.65;4.65;;;9.10;99.90;;;;;;5096431;28;20040;-72
2021/11/06 03:20:43;;;;;;;10.23;4.97;;;9.10;99.90;;;;;;5114804;28;20043;-71
2021/11/06 03:23:09;;;;;;;12.93;6.75;;;9.00;99.90;;;;;;5113353;28;20071;-72
2021/11/06 03:25:35;;;;;;;11.80;5.80;;;9.10;99.90;;;;;;5114671;28;20096;-72
2021/11/06 03:28:00;;;;;;;11.00;5.82;;;9.10;99.90;;;;;;5114818;28;20093;-72
2021/11/06 03:30:26;;;;;;;11.93;5.15;;;9.10;99.90;;;;;;5114209;28;20484;-72
2021/11/06 03:32:53;;;;;;;12.68;5.40;;;9.00;99.90;;;;;;5114330;28;20035;-72
2021/11/06 03:35:19;;;;;;;13.73;6.15;;;9.00;99.90;;;;;;5115027;28;20028;-72
2021/11/06 03:37:45;;;;;;;10.45;6.18;;;9.00;99.90;;;;;;5113745;28;20428;-72
2021/11/06 03:40:12;;;;;;;14.05;6.43;;;9.00;99.90;;;;;;5113916;28;20071;-71
2021/11/06 03:42:39;;;;;;;11.38;7.43;;;9.00;99.90;;;;;;5114444;28;20430;-72
2021/11/06 03:45:05;;;;;;;13.07;5.70;;;9.00;99.90;;;;;;5096248;28;20039;-72
2021/11/06 03:47:31;;;;;;;13.52;6.45;;;8.90;99.90;;;;;;5114399;28;20040;-72
2021/11/06 03:49:57;;;;;;;14.25;7.65;;;9.00;99.90;;;;;;5112682;28;20526;-72
2021/11/06 03:52:23;;;;;;;12.98;6.60;;;9.00;99.90;;;;;;5114295;28;20028;-72
2021/11/06 03:54:49;;;;;;;11.45;7.03;;;9.00;99.90;;;;;;5112708;28;20078;-72
2021/11/06 03:57:14;;;;;;;17.00;8.13;;;9.00;99.90;;;;;;5113999;28;20070;-72
2021/11/06 03:59:40;;;;;;;14.48;7.50;;;9.10;99.90;;;;;;5112405;28;20047;-72
2021/11/06 04:02:05;;;;;;;16.73;7.53;;;9.00;99.90;;;;;;5114476;28;20071;-72
2021/11/06 04:04:31;;;;;;;16.85;7.55;;;9.00;99.90;;;;;;5113821;28;20047;-72
2021/11/06 04:06:57;;;;;;;15.75;7.93;;;9.00;99.90;;;;;;5114040;28;20047;-72
2021/11/06 04:09:22;;;;;;;14.05;8.63;;;9.10;99.90;;;;;;5112182;28;20039;-72
2021/11/06 04:11:50;;;;;;;19.45;8.77;;;9.10;99.90;;;;;;5113724;28;20035;-72
2021/11/06 04:14:15;;;;;;;20.20;8.50;;;9.00;99.90;;;;;;5114039;28;20391;-72
2021/11/06 04:16:41;;;;;;;13.75;8.25;;;9.00;99.90;;;;;;5114237;28;20035;-72
2021/11/06 04:19:06;;;;;;;17.27;9.00;;;9.10;99.90;;;;;;5113266;28;20480;-72
2021/11/06 04:21:33;;;;;;;13.60;8.65;;;9.20;99.90;;;;;;5113698;28;20097;-72
2021/11/06 04:23:59;;;;;;;17.70;9.50;;;9.20;99.90;;;;;;5112448;28;20075;-72
2021/11/06 04:26:24;;;;;;;16.35;10.32;;;9.20;99.90;;;;;;5113592;28;20067;-72
2021/11/06 04:28:50;;;;;;;15.52;9.50;;;9.20;99.90;;;;;;5112374;28;20032;-72
2021/11/06 04:31:15;;;;;;;18.50;10.63;;;9.20;99.90;;;;;;5114180;28;20528;-72
2021/11/06 04:33:41;;;;;;;16.55;10.40;;;9.20;99.90;;;;;;5113920;28;20535;-72
2021/11/06 04:36:08;;;;;;;17.67;11.32;;;9.20;99.90;;;;;;5113661;28;20040;-72
2021/11/06 04:38:34;;;;;;;20.67;12.15;;;9.30;99.90;;;;;;5113282;28;20035;-71
2021/11/06 04:41:00;;;;;;;21.38;11.15;;;9.30;99.90;;;;;;5113525;28;20452;-72
2021/11/06 04:43:25;;;;;;;20.55;11.25;;;9.30;99.90;;;;;;5113448;28;20481;-72
2021/11/06 04:45:51;;;;;;;23.33;12.30;;;9.30;99.90;;;;;;5113412;28;20035;-72
2021/11/06 04:48:16;;;;;;;22.27;11.85;;;9.30;99.90;;;;;;5113735;28;20077;-72
2021/11/06 04:50:42;;;;;;;21.70;11.90;;;9.30;99.90;;;;;;5117401;28;20032;-71
2021/11/06 04:53:08;;;;;;;20.83;12.27;;;9.30;99.90;;;;;;5117698;28;20539;-72
2021/11/06 04:55:33;;;;;;;23.52;13.68;;;9.30;99.90;;;;;;5117790;28;20141;-72
2021/11/06 04:57:59;;;;;;;18.13;13.07;;;9.30;99.90;;;;;;5116411;28;20403;-72
2021/11/06 05:00:25;;;;;;;24.67;13.50;;;9.30;99.90;;;;;;5117206;28;20050;-72
2021/11/06 05:02:51;;;;;;;22.98;14.15;;;9.30;99.90;;;;;;5117273;28;20106;-72
2021/11/06 05:05:17;;;;;;;22.70;14.13;;;9.40;99.90;;;;;;5117595;28;20452;-72
2021/11/06 05:07:43;;;;;;;23.02;14.80;;;9.40;99.90;;;;;;5117299;28;20426;-72
2021/11/06 05:10:09;;;;;;;24.65;15.05;;;9.30;99.90;;;;;;5116895;28;20040;-72
2021/11/06 05:12:35;;;;;;;25.33;15.00;;;9.40;99.90;;;;;;5115867;28;20040;-72
2021/11/06 05:15:03;;;;;;;23.13;15.55;;;9.40;99.90;;;;;;5117633;28;20040;-72
2021/11/06 05:17:29;;;;;;;22.77;15.50;;;9.40;99.90;;;;;;5116936;28;20044;-72
2021/11/06 05:19:57;;;;;;;25.30;16.15;;;9.30;99.90;;;;;;5116957;28;20077;-72
2021/11/06 05:22:22;;;;;;;30.33;17.30;;;9.40;99.90;;;;;;5116970;27;20047;-72
2021/11/06 05:24:48;;;;;;;27.00;16.83;;;9.40;99.90;;;;;;5115722;28;20039;-72
2021/11/06 05:27:14;;;;;;;31.25;17.58;;;9.40;99.90;;;;;;5116817;28;20380;-72
2021/11/06 05:29:41;;;;;;;28.42;18.23;;;9.30;99.90;;;;;;5116775;28;20045;-72
2021/11/06 05:32:07;;;;;;;27.02;17.27;;;9.30;99.90;;;;;;5115492;28;20122;-73
2021/11/06 05:34:32;;;;;;;28.02;17.08;;;9.30;99.90;;;;;;5115605;28;20052;-72
2021/11/06 05:36:58;;;;;;;31.73;17.33;;;9.30;99.90;;;;;;5116888;28;20143;-72
2021/11/06 05:39:24;;;;;;;29.42;19.02;;;9.20;99.90;;;;;;5116302;28;20046;-72
2021/11/06 05:41:49;;;;;;;33.25;19.10;;;9.20;99.90;;;;;;5116668;28;20075;-72
2021/11/06 05:44:15;;;;;;;33.42;21.13;;;9.30;99.90;;;;;;5116688;28;20122;-72
2021/11/06 05:46:42;;;;;;;34.45;21.52;;;9.30;99.90;;;;;;5116417;27;20071;-72
2021/11/06 05:49:08;;;;;;;29.65;20.13;;;9.30;99.90;;;;;;5114980;28;20380;-72
2021/11/06 05:51:33;;;;;;;33.15;21.48;;;9.30;99.90;;;;;;5116766;28;20122;-72
2021/11/06 05:53:59;;;;;;;37.33;21.05;;;9.30;99.90;;;;;;5116406;28;20036;-72
2021/11/06 05:56:25;;;;;;;35.35;22.00;;;9.30;99.90;;;;;;5116476;28;20036;-72
2021/11/06 05:58:50;;;;;;;32.20;22.02;;;9.30;99.90;;;;;;5116392;28;20040;-72
2021/11/06 06:01:16;;;;;;;39.03;23.83;;;9.30;99.90;;;;;;5115861;28;20039;-72
2021/11/06 06:03:42;;;;;;;36.40;23.27;;;9.40;99.90;;;;;;5114866;28;20476;-72
2021/11/06 06:06:09;;;;;;;37.33;23.73;;;9.40;99.90;;;;;;5116416;28;20047;-72
2021/11/06 06:08:35;;;;;;;36.75;22.33;;;9.40;99.90;;;;;;5115897;28;20035;-72
2021/11/06 06:11:00;;;;;;;36.25;23.75;;;9.50;99.90;;;;;;5098087;28;20162;-72
2021/11/06 06:13:27;;;;;;;32.25;23.30;;;9.40;99.90;;;;;;5097658;28;20384;-72
2021/11/06 06:15:53;;;;;;;36.47;23.08;;;9.40;99.90;;;;;;5116131;28;20101;-72
2021/11/06 06:18:18;;;;;;;34.97;23.02;;;9.40;99.90;;;;;;5115714;28;20027;-73
2021/11/06 06:20:44;;;;;;;35.42;23.58;;;9.40;99.90;;;;;;5115739;28;20478;-72
2021/11/06 06:23:09;;;;;;;33.58;22.50;;;9.40;99.90;;;;;;5116064;28;20031;-72
2021/11/06 06:25:35;;;;;;;36.42;23.02;;;9.50;99.90;;;;;;5115815;28;20032;-72
2021/11/06 06:28:03;;;;;;;37.30;22.98;;;9.50;99.90;;;;;;5114526;28;20463;-72
2021/11/06 06:30:29;;;;;;;35.42;22.73;;;9.50;99.90;;;;;;5115342;28;20429;-72
2021/11/06 06:32:54;;;;;;;38.10;24.23;;;9.50;99.90;;;;;;5115800;28;20053;-72
2021/11/06 06:35:20;;;;;;;35.95;24.27;;;9.50;99.90;;;;;;5115751;28;20042;-72
2021/11/06 06:37:46;;;;;;;39.55;24.02;;;9.40;99.90;;;;;;5115806;28;20480;-72
2021/11/06 06:40:13;;;;;;;35.53;22.75;;;9.40;99.90;;;;;;5115360;28;20044;-72
2021/11/06 06:42:39;;;;;;;33.60;22.63;;;9.40;99.90;;;;;;5115573;27;20036;-72
2021/11/06 06:45:05;;;;;;;38.88;23.70;;;9.40;99.90;;;;;;5114547;28;20048;-72
2021/11/06 06:47:31;;;;;;;39.40;22.48;;;9.40;99.90;;;;;;5115556;28;20065;-72
2021/11/06 06:49:56;;;;;;;38.55;23.85;;;9.50;99.90;;;;;;5115291;28;20247;-72
2021/11/06 06:52:23;;;;;;;36.78;24.83;;;9.40;99.90;;;;;;5115437;28;20043;-72
2021/11/06 06:54:48;;;;;;;40.05;24.95;;;9.50;99.90;;;;;;5113835;28;20122;-72
2021/11/06 06:57:14;;;;;;;37.97;25.08;;;9.50;99.90;;;;;;5114221;28;20123;-72
2021/11/06 06:59:40;;;;;;;35.95;23.63;;;9.50;99.90;;;;;;5114947;28;20044;-72
2021/11/06 07:02:06;;;;;;;36.97;24.10;;;9.50;99.90;;;;;;5115163;28;20092;-73
2021/11/06 07:04:32;;;;;;;38.40;23.58;;;9.50;99.90;;;;;;5115155;28;20134;-72
2021/11/06 07:06:58;;;;;;;39.30;24.17;;;9.60;99.90;;;;;;5115061;28;20040;-72
2021/11/06 07:09:24;;;;;;;33.13;23.10;;;9.50;99.90;;;;;;5096254;28;20047;-72
2021/11/06 07:11:51;;;;;;;37.85;24.60;;;9.60;99.90;;;;;;5112945;28;20119;-72
2021/11/06 07:14:17;;;;;;;39.17;23.90;;;9.50;99.90;;;;;;5096764;28;20464;-72
2021/11/06 07:16:43;;;;;;;41.20;23.38;;;9.60;99.90;;;;;;5113654;28;20122;-72
2021/11/06 07:19:10;;;;;;;34.83;23.40;;;9.60;99.90;;;;;;5114360;28;20039;-72
2021/11/06 07:21:36;;;;;;;33.67;23.35;;;9.60;99.90;;;;;;5114030;28;20084;-72
2021/11/06 07:24:01;;;;;;;38.45;23.55;;;9.60;99.90;;;;;;5114209;28;20560;-72
2021/11/06 07:26:36;;;;;;;37.13;22.13;;;9.60;99.90;;;;;;5114419;28;20032;-72
2021/11/06 07:29:02;;;;;;;34.33;21.92;;;9.70;99.90;;;;;;5114032;28;20043;-72
2021/11/06 07:31:28;;;;;;;33.47;23.60;;;9.60;99.90;;;;;;5114859;28;20043;-73
2021/11/06 07:33:56;;;;;;;30.30;22.42;;;9.60;99.90;;;;;;5113300;28;20040;-73
2021/11/06 07:36:23;;;;;;;39.53;23.00;;;9.60;99.90;;;;;;5114422;28;20080;-72
2021/11/06 07:38:50;;;;;;;30.58;22.38;;;9.60;99.90;;;;;;5114034;27;20031;-72
2021/11/06 07:41:16;;;;;;;41.38;23.27;;;9.60;99.90;;;;;;5114228;28;20092;-72
2021/11/06 07:43:42;;;;;;;40.25;23.50;;;9.60;99.90;;;;;;5114452;28;20048;-72
2021/11/06 07:46:08;;;;;;;37.17;23.50;;;9.70;99.90;;;;;;5114589;27;20031;-72
2021/11/06 07:48:34;;;;;;;40.13;22.13;;;9.70;99.90;;;;;;5113852;28;20079;-72
2021/11/06 07:51:01;;;;;;;34.00;21.13;;;9.70;99.90;;;;;;5112914;28;20082;-72
2021/11/06 07:53:26;;;;;;;32.85;21.77;;;9.80;99.90;;;;;;5114413;28;20088;-73
2021/11/06 07:55:52;;;;;;;34.33;24.42;;;9.70;99.90;;;;;;5113209;28;20444;-72
2021/11/06 07:58:18;;;;;;;37.30;24.48;;;9.70;99.90;;;;;;5114293;28;20434;-72
2021/11/06 08:00:43;;;;;;;38.72;22.92;;;9.80;99.90;;;;;;5112551;28;20038;-71
2021/11/06 08:03:10;;;;;;;37.92;23.77;;;9.70;99.90;;;;;;5112618;28;20043;-72
2021/11/06 08:05:35;;;;;;;35.13;22.40;;;9.80;99.90;;;;;;5113298;28;20071;-72
2021/11/06 08:08:02;;;;;;;34.88;22.60;;;9.80;99.90;;;;;;5096092;28;20074;-71
2021/11/06 08:10:28;;;;;;;34.78;22.83;;;9.90;99.90;;;;;;5113530;28;20540;-71
2021/11/06 08:12:56;;;;;;;37.88;23.10;;;9.90;99.90;;;;;;5113986;28;20114;-71
2021/11/06 08:15:21;;;;;;;38.25;21.92;;;9.90;99.90;;;;;;5113606;28;20513;-71
2021/11/06 08:17:47;;;;;;;33.05;22.83;;;9.90;99.90;;;;;;5113789;28;20036;-71
2021/11/06 08:20:13;;;;;;;34.13;22.15;;;9.90;99.90;;;;;;5113510;28;20047;-71
2021/11/06 08:22:39;;;;;;;31.67;22.15;;;9.90;99.90;;;;;;5113710;28;20046;-71
2021/11/06 08:25:07;;;;;;;30.05;21.00;;;9.90;99.90;;;;;;5113619;28;20396;-71
2021/11/06 08:27:34;;;;;;;36.65;20.90;;;9.90;99.90;;;;;;5113686;28;20376;-71
2021/11/06 08:29:59;;;;;;;31.60;19.85;;;9.90;99.90;;;;;;5112297;28;20118;-71
2021/11/06 08:32:25;;;;;;;30.08;20.15;;;9.90;99.90;;;;;;5113624;28;20546;-71
2021/11/06 08:34:51;;;;;;;27.20;19.65;;;9.90;99.90;;;;;;5113727;28;20042;-71
2021/11/06 08:37:17;;;;;;;32.63;21.30;;;9.90;99.90;;;;;;5113607;28;20418;-71
2021/11/06 08:39:42;;;;;;;30.17;19.95;;;10.00;99.90;;;;;;5113339;28;20035;-71
2021/11/06 08:42:08;;;;;;;33.58;19.63;;;9.90;99.90;;;;;;5113691;28;20043;-71
2021/11/06 08:44:34;;;;;;;39.30;19.13;;;9.90;99.90;;;;;;5113786;28;20043;-71
2021/11/06 08:47:00;;;;;;;29.65;19.58;;;9.90;99.90;;;;;;5113661;28;20522;-71
2021/11/06 08:49:26;;;;;;;33.72;20.52;;;9.90;99.90;;;;;;5113256;28;20050;-71
2021/11/06 08:51:53;;;;;;;34.53;18.75;;;9.90;99.90;;;;;;5113185;28;20039;-71
2021/11/06 08:54:20;;;;;;;31.58;19.48;;;9.90;99.90;;;;;;5113290;28;20044;-71
2021/11/06 08:56:47;;;;;;;30.00;19.95;;;10.00;99.90;;;;;;5113767;28;20067;-71
2021/11/06 08:59:20;;;;;;;31.30;20.45;;;10.00;99.90;;;;;;5094915;28;20118;-71
2021/11/06 09:01:51;;;;;;;33.00;18.30;;;10.00;99.90;;;;;;5113380;28;20087;-71
2021/11/06 09:04:16;;;;;;;31.60;18.55;;;10.00;99.90;;;;;;5112345;28;20419;-71
2021/11/06 09:06:46;;;;;;;30.27;17.98;;;10.10;99.90;;;;;;5095769;28;20043;-70
2021/11/06 09:09:14;;;;;;;31.73;20.15;;;10.10;99.90;;;;;;5111897;28;20039;-71
2021/11/06 09:11:41;;;;;;;31.98;20.17;;;10.10;99.90;;;;;;5112299;28;20130;-72
2021/11/06 09:14:09;;;;;;;31.92;19.15;;;10.20;99.90;;;;;;5113234;28;20055;-70
2021/11/06 09:16:35;;;;;;;30.45;19.65;;;10.30;99.90;;;;;;5112527;28;20051;-71
2021/11/06 09:19:04;;;;;;;31.23;18.02;;;10.30;99.90;;;;;;5111908;28;20043;-71
2021/11/06 09:21:31;;;;;;;29.80;18.40;;;10.30;99.90;;;;;;5113544;28;20067;-71
2021/11/06 09:24:02;;;;;;;33.35;19.42;;;10.20;99.90;;;;;;5112453;28;20055;-71
2021/11/06 09:26:34;;;;;;;28.77;18.75;;;10.30;99.90;;;;;;5113211;28;20031;-70
2021/11/06 09:29:00;;;;;;;35.38;19.25;;;10.30;99.90;;;;;;5113329;28;20111;-70
2021/11/06 09:31:26;;;;;;;31.90;18.40;;;10.20;99.90;;;;;;5113453;28;20042;-70
2021/11/06 09:33:52;;;;;;;28.67;17.77;;;10.20;99.90;;;;;;5113383;28;20483;-70
2021/11/06 09:36:18;;;;;;;28.10;18.88;;;10.30;99.90;;;;;;5114976;28;20027;-70
2021/11/06 09:38:43;;;;;;;25.50;16.48;;;10.30;99.90;;;;;;5116511;28;20483;-70
2021/11/06 09:41:10;;;;;;;27.23;17.67;;;10.30;99.90;;;;;;5116567;28;20050;-70
2021/11/06 09:43:38;;;;;;;25.48;16.33;;;10.40;99.90;;;;;;5116617;28;20040;-70
2021/11/06 09:46:04;;;;;;;26.73;17.05;;;10.50;99.90;;;;;;5115359;28;20040;-71
2021/11/06 09:48:31;;;;;;;28.42;16.88;;;10.50;99.90;;;;;;5114950;28;20058;-72
2021/11/06 09:50:59;;;;;;;30.90;17.85;;;10.60;99.90;;;;;;5115239;28;20556;-71
2021/11/06 09:53:28;;;;;;;28.50;18.05;;;10.60;99.90;;;;;;5115500;28;20119;-71
2021/11/06 09:55:55;;;;;;;29.23;17.42;;;10.70;99.90;;;;;;5116753;28;20040;-71
2021/11/06 09:58:22;;;;;;;27.02;17.85;;;10.80;99.90;;;;;;5098187;28;20114;-71
2021/11/06 10:00:47;;;;;;;27.30;16.90;;;10.80;99.90;;;;;;5116721;28;20028;-72
2021/11/06 10:03:14;;;;;;;24.98;16.02;;;10.80;99.90;;;;;;5116355;28;20051;-71
2021/11/06 10:05:46;;;;;;;25.25;15.65;;;10.90;99.90;;;;;;5097945;28;20040;-72
2021/11/06 10:08:24;;;;;;;27.73;15.10;;;10.90;99.90;;;;;;5098073;28;20046;-72
2021/11/06 10:10:52;;;;;;;24.73;16.75;;;10.80;99.90;;;;;;5114658;28;20047;-74
2021/11/06 10:13:19;;;;;;;29.52;16.40;;;10.90;99.90;;;;;;5098067;28;20390;-74
2021/11/06 10:15:48;;;;;;;26.20;15.48;;;11.00;99.90;;;;;;5112975;28;20186;-73
2021/11/06 10:18:17;;;;;;;24.48;15.90;;;11.00;99.90;;;;;;5116214;28;20352;-73
2021/11/06 10:20:45;;;;;;;28.58;16.42;;;11.00;99.90;;;;;;5097392;28;20036;-72
2021/11/06 10:23:11;;;;;;;23.67;16.13;;;11.00;99.90;;;;;;5114544;28;20479;-72
2021/11/06 10:25:37;;;;;;;25.23;15.57;;;11.00;99.90;;;;;;5114643;28;20395;-74
2021/11/06 10:28:08;;;;;;;30.90;15.68;;;11.00;99.90;;;;;;5114599;28;20032;-73
2021/11/06 10:30:38;;;;;;;27.35;15.60;;;11.00;99.90;;;;;;5115424;28;20476;-73
2021/11/06 10:33:05;;;;;;;27.52;15.98;;;11.00;99.90;;;;;;5115794;28;20035;-72
2021/11/06 10:35:39;;;;;;;26.40;15.32;;;11.00;99.90;;;;;;5115595;27;20071;-72
2021/11/06 10:38:07;;;;;;;23.55;14.20;;;11.00;99.90;;;;;;5115945;28;20035;-73
2021/11/06 10:40:40;;;;;;;28.10;14.70;;;11.00;99.90;;;;;;5096868;28;20491;-72
2021/11/06 10:43:07;;;;;;;31.38;15.85;;;11.00;99.90;;;;;;5114322;28;20124;-73
2021/11/06 10:45:41;;;;;;;22.73;15.75;;;11.10;99.90;;;;;;5097193;28;20032;-71
2021/11/06 10:48:13;;;;;;;25.75;15.25;;;11.10;99.90;;;;;;5115363;28;20043;-73
2021/11/06 10:50:46;;;;;;;27.73;15.93;;;11.10;99.90;;;;;;5115353;28;20032;-73
2021/11/06 10:53:14;;;;;;;;;;;11.10;99.90;;;;;;5115740;28;20092;-73
2021/11/06 10:55:41;;;;;;;35.03;14.80;;;11.10;99.90;;;;;;5114733;28;20013;-73
2021/11/06 10:58:27;;;;;;;22.13;14.85;;;11.10;99.90;;;;;;5115196;28;20047;-73
2021/11/06 11:01:01;;;;;;;26.35;14.18;;;11.10;99.90;;;;;;5115157;28;20039;-73
2021/11/06 11:03:30;;;;;;;22.75;13.82;;;11.10;99.90;;;;;;5113636;28;20078;-73
2021/11/06 11:05:58;;;;;;;30.75;14.68;;;11.10;99.90;;;;;;5115055;28;20035;-73
2021/11/06 11:08:24;;;;;;;23.80;13.10;;;11.20;99.90;;;;;;5115342;28;20035;-73
2021/11/06 11:10:51;;;;;;;23.98;13.98;;;11.20;99.90;;;;;;5115671;28;20031;-72
2021/11/06 11:13:20;;;;;;;25.60;14.70;;;11.20;99.90;;;;;;5114760;27;20116;-70
2021/11/06 11:15:53;;;;;;;26.00;14.05;;;11.20;99.90;;;;;;5113660;28;20043;-70
2021/11/06 11:18:39;;;;;;;26.08;14.18;;;11.30;99.90;;;;;;5114661;28;20028;-71
2021/11/06 11:21:18;;;;;;;24.30;14.38;;;11.30;99.90;;;;;;5114817;28;20398;-71
2021/11/06 11:23:55;;;;;;;26.58;13.55;;;11.20;99.90;;;;;;5114645;28;20468;-67
2021/11/06 11:26:27;;;;;;;25.08;14.65;;;11.30;99.90;;;;;;5114619;28;20124;-70
2021/11/06 11:28:54;;;;;;;26.02;14.68;;;11.40;99.90;;;;;;5114520;28;20040;-71
2021/11/06 11:31:21;;;;;;;21.98;13.60;;;11.40;99.90;;;;;;5113645;28;20040;-70
2021/11/06 11:33:48;;;;;;;23.95;13.80;;;11.40;99.90;;;;;;5114540;28;20054;-70
2021/11/06 11:36:17;;;;;;;25.83;13.95;;;11.40;99.90;;;;;;5114403;28;20510;-69
2021/11/06 11:38:44;;;;;;;33.60;14.38;;;11.40;99.90;;;;;;5114293;28;20035;-71
2021/11/06 11:41:41;;;;;;;24.30;13.40;;;11.50;99.90;;;;;;5113213;28;20036;-68
2021/11/06 11:44:06;;;;;;;20.30;13.07;;;11.60;99.90;;;;;;5114722;28;20055;-69
2021/11/06 11:46:40;;;;;;;22.55;14.38;;;11.50;99.90;;;;;;5113166;28;20048;-68
2021/11/06 11:49:07;;;;;;;24.27;13.43;;;11.60;99.90;;;;;;5113913;28;20523;-69
2021/11/06 11:51:34;;;;;;;28.40;14.77;;;11.60;99.90;;;;;;5112716;28;20115;-71
2021/11/06 11:54:02;;;;;;;26.85;14.48;;;11.60;99.90;;;;;;5114563;28;20084;-70
2021/11/06 11:56:29;;;;;;;26.33;13.70;;;11.60;99.90;;;;;;5114208;28;20044;-70
2021/11/06 11:58:55;;;;;;;25.67;14.77;;;11.60;99.90;;;;;;5111950;28;20122;-70
2021/11/06 12:01:21;;;;;;;23.75;13.10;;;11.70;99.90;;;;;;5114329;28;20032;-70
2021/11/06 12:03:49;;;;;;;21.95;13.68;;;11.60;99.90;;;;;;5112661;28;20109;-71
2021/11/06 12:06:39;;;;;;;21.98;14.23;;;11.60;99.90;;;;;;5114317;28;20167;-71
2021/11/06 12:09:11;;;;;;;24.25;13.38;;;11.60;99.90;;;;;;5114281;28;20348;-71
2021/11/06 12:11:44;;;;;;;24.08;13.65;;;11.60;99.90;;;;;;5112509;28;20104;-71
2021/11/06 12:14:28;;;;;;;26.90;14.93;;;11.60;99.90;;;;;;5112867;28;20044;-70
2021/11/06 12:16:57;;;;;;;;;;;11.70;99.90;;;;;;5114184;28;20039;-70
2021/11/06 12:19:50;;;;;;;23.52;14.43;;;11.60;99.90;;;;;;5113620;28;19923;-70
2021/11/06 12:22:23;;;;;;;22.17;13.30;;;11.60;99.90;;;;;;5114039;28;20038;-71
2021/11/06 12:24:51;;;;;;;20.65;12.35;;;11.60;99.90;;;;;;5112658;28;20144;-70
2021/11/06 12:27:31;;;;;;;28.25;13.35;;;11.60;99.90;;;;;;5112443;28;20085;-71
2021/11/06 12:29:57;;;;;;;23.20;11.95;;;11.60;99.90;;;;;;5113669;28;20062;-71
2021/11/06 12:32:29;;;;;;;21.27;12.68;;;11.70;99.90;;;;;;5095373;28;20039;-71
2021/11/06 12:35:18;;;;;;;18.35;10.88;;;11.60;99.90;;;;;;5113567;28;20491;-71
2021/11/06 12:37:49;;;;;;;24.90;11.43;;;11.80;99.90;;;;;;5113852;28;20039;-71
2021/11/06 12:40:15;;;;;;;21.33;10.57;;;11.80;99.90;;;;;;5113250;28;20442;-71